createdAt,value
2017-07-15T00:01:13.775Z,8.73
2017-07-15T00:03:40.711Z,14.13
2017-07-15T00:06:07.668Z,9.73
2017-07-15T00:08:34.614Z,13.83
2017-07-15T00:11:01.579Z,8.93
2017-07-15T00:13:29.291Z,8.87
2017-07-15T00:15:56.275Z,10.57
2017-07-15T00:18:23.232Z,10.70
2017-07-15T00:20:50.951Z,9.53
2017-07-15T00:23:17.920Z,8.67
2017-07-15T00:25:45.852Z,11.07
2017-07-15T00:28:12.827Z,9.20
2017-07-15T00:30:39.787Z,10.73
2017-07-15T00:33:07.535Z,9.97
2017-07-15T00:35:35.471Z,10.03
2017-07-15T00:38:02.725Z,10.10
2017-07-15T00:40:29.670Z,10.20
2017-07-15T00:42:56.623Z,11.30
2017-07-15T00:45:23.595Z,13.17
2017-07-15T00:47:50.546Z,10.77
2017-07-15T00:50:17.523Z,13.63
2017-07-15T00:52:44.476Z,15.00
2017-07-15T00:55:12.210Z,12.30
2017-07-15T00:57:39.163Z,12.97
2017-07-15T01:00:06.164Z,16.70
2017-07-15T01:02:33.114Z,14.27
2017-07-15T01:05:00.074Z,14.43
2017-07-15T01:07:27.064Z,13.23
2017-07-15T01:09:54.787Z,13.40
2017-07-15T01:12:21.765Z,11.10
2017-07-15T01:14:48.812Z,11.67
2017-07-15T01:17:15.786Z,12.70
2017-07-15T01:19:42.739Z,14.27
2017-07-15T01:22:09.730Z,14.60
2017-07-15T01:24:36.680Z,13.87
2017-07-15T01:27:03.650Z,15.37
2017-07-15T01:29:31.404Z,12.70
2017-07-15T01:31:58.363Z,14.77
2017-07-15T01:34:26.112Z,13.50
2017-07-15T01:36:53.067Z,13.50
2017-07-15T01:39:21.714Z,13.33
2017-07-15T01:41:48.666Z,13.87
2017-07-15T01:44:15.682Z,14.47
2017-07-15T01:46:42.646Z,15.48
2017-07-15T01:49:09.597Z,15.43
2017-07-15T01:51:36.567Z,18.40
2017-07-15T01:54:03.509Z,15.50
2017-07-15T01:56:30.476Z,14.80
2017-07-15T01:58:58.280Z,13.47
2017-07-15T02:01:25.241Z,15.47
2017-07-15T02:03:52.199Z,17.00
2017-07-15T02:06:19.175Z,20.20
2017-07-15T02:14:14.452Z,16.00
2017-07-15T02:16:41.453Z,13.87
2017-07-15T02:19:08.426Z,16.30
2017-07-15T02:21:35.386Z,15.83
2017-07-15T02:24:02.364Z,15.83
2017-07-15T02:26:29.317Z,17.87
2017-07-15T02:28:57.059Z,22.70
2017-07-15T02:31:26.038Z,15.93
2017-07-15T02:33:53.049Z,17.33
2017-07-15T02:36:20.053Z,19.63
2017-07-15T02:38:47.020Z,17.90
2017-07-15T02:41:14.847Z,17.50
2017-07-15T02:43:42.575Z,17.43
2017-07-15T02:46:09.535Z,18.10
2017-07-15T02:48:36.485Z,20.50
2017-07-15T02:51:03.448Z,19.77
2017-07-15T02:53:33.657Z,19.23
2017-07-15T02:56:04.167Z,21.57
2017-07-15T02:58:31.125Z,18.20
2017-07-15T03:00:58.075Z,19.70
2017-07-15T03:03:25.806Z,21.07
2017-07-15T03:05:52.758Z,23.80
2017-07-15T03:08:20.769Z,22.07
2017-07-15T03:10:47.714Z,20.63
2017-07-15T03:13:14.661Z,22.70
2017-07-15T03:15:41.627Z,20.83
2017-07-15T03:18:10.592Z,24.10
2017-07-15T03:20:38.325Z,26.83
2017-07-15T03:23:05.333Z,24.57
2017-07-15T03:25:32.320Z,27.20
2017-07-15T03:27:59.296Z,31.87
2017-07-15T03:30:26.291Z,31.07
2017-07-15T03:32:54.271Z,35.57
2017-07-15T03:35:21.281Z,38.47
2017-07-15T03:37:48.275Z,39.70
2017-07-15T03:40:15.251Z,37.77
2017-07-15T03:42:42.220Z,37.00
2017-07-15T03:45:09.190Z,32.10
2017-07-15T03:47:36.190Z,34.47
2017-07-15T03:50:03.138Z,32.10
2017-07-15T03:52:31.056Z,35.20
2017-07-15T03:54:58.015Z,34.67
2017-07-15T03:57:26.687Z,35.30
2017-07-15T03:59:53.646Z,38.70
2017-07-15T04:02:21.386Z,38.87
2017-07-15T04:04:48.338Z,36.23
2017-07-15T04:07:15.312Z,38.53
2017-07-15T04:09:43.184Z,34.37
2017-07-15T04:12:11.868Z,35.93
2017-07-15T04:14:41.563Z,36.70
2017-07-15T04:17:09.321Z,34.07
2017-07-15T04:19:36.291Z,34.00
2017-07-15T04:22:03.236Z,34.10
2017-07-15T04:24:30.974Z,38.47
2017-07-15T04:26:57.930Z,34.10
2017-07-15T04:29:25.628Z,31.57
2017-07-15T04:31:52.594Z,29.90
2017-07-15T04:34:19.540Z,31.67
2017-07-15T04:36:46.519Z,35.40
2017-07-15T04:39:14.235Z,37.63
2017-07-15T04:41:41.207Z,33.80
2017-07-15T04:44:08.150Z,37.37
2017-07-15T04:46:35.127Z,37.67
2017-07-15T04:49:02.840Z,39.37
2017-07-15T04:51:29.807Z,37.47
2017-07-15T04:53:56.773Z,32.53
2017-07-15T04:56:23.719Z,38.23
2017-07-15T04:58:51.459Z,37.17
2017-07-15T05:01:18.410Z,33.10
2017-07-15T05:03:45.391Z,35.60
2017-07-15T05:06:13.117Z,29.43
2017-07-15T05:08:40.094Z,33.97
2017-07-15T05:11:07.786Z,32.97
2017-07-15T05:13:34.750Z,30.43
2017-07-15T05:16:01.702Z,37.10
2017-07-15T05:18:28.681Z,36.40
2017-07-15T05:20:55.632Z,31.73
2017-07-15T05:23:22.579Z,37.50
2017-07-15T05:25:50.303Z,31.00
2017-07-15T05:28:17.275Z,38.77
2017-07-15T05:30:44.240Z,31.87
2017-07-15T05:33:11.214Z,32.80
2017-07-15T05:35:38.199Z,35.87
2017-07-15T05:38:05.155Z,32.53
2017-07-15T05:40:32.123Z,40.37
2017-07-15T05:42:59.841Z,34.47
2017-07-15T05:45:26.809Z,36.20
2017-07-15T05:48:01.970Z,31.60
2017-07-15T05:50:30.097Z,32.30
2017-07-15T05:52:57.063Z,29.47
2017-07-15T05:55:26.031Z,32.63
2017-07-15T05:57:53.020Z,31.27
2017-07-15T06:00:19.991Z,34.10
2017-07-15T06:02:46.959Z,33.07
2017-07-15T06:05:13.951Z,31.80
2017-07-15T06:07:40.922Z,33.17
2017-07-15T06:10:07.856Z,28.30
2017-07-15T06:12:34.831Z,27.80
2017-07-15T06:15:01.789Z,29.13
2017-07-15T06:17:28.779Z,31.03
2017-07-15T06:19:56.523Z,31.00
2017-07-15T06:22:23.518Z,38.20
2017-07-15T06:24:50.695Z,29.60
2017-07-15T06:27:18.657Z,28.83
2017-07-15T06:29:45.602Z,26.87
2017-07-15T06:32:12.600Z,26.73
2017-07-15T06:34:40.637Z,24.17
2017-07-15T06:37:07.587Z,24.73
2017-07-15T06:39:35.399Z,26.70
2017-07-15T06:42:03.106Z,22.90
2017-07-15T06:44:30.050Z,28.80
2017-07-15T06:46:57.011Z,27.23
2017-07-15T06:49:23.986Z,29.13
2017-07-15T06:51:52.015Z,27.20
2017-07-15T06:54:18.970Z,24.73
2017-07-15T06:56:46.964Z,23.40
2017-07-15T06:59:13.909Z,22.97
2017-07-15T07:01:40.863Z,23.27
2017-07-15T07:04:07.798Z,22.63
2017-07-15T07:06:34.791Z,17.60
2017-07-15T07:09:01.725Z,22.43
2017-07-15T07:11:28.669Z,19.50
2017-07-15T07:13:55.627Z,22.60
2017-07-15T07:16:22.558Z,23.43
2017-07-15T07:18:49.521Z,17.33
2017-07-15T07:21:16.457Z,17.73
2017-07-15T07:23:43.446Z,19.60
2017-07-15T07:26:11.377Z,21.50
2017-07-15T07:28:38.314Z,23.33
2017-07-15T07:31:05.272Z,15.10
2017-07-15T07:33:32.215Z,18.00
2017-07-15T07:35:59.180Z,14.27
2017-07-15T07:38:26.103Z,14.30
2017-07-15T07:40:53.083Z,14.03
2017-07-15T07:43:20.017Z,7.63
2017-07-15T07:45:46.999Z,10.97
2017-07-15T07:48:13.935Z,12.93
2017-07-15T07:50:40.929Z,13.50
2017-07-15T07:53:07.884Z,14.10
2017-07-15T07:55:34.824Z,14.67
2017-07-15T07:58:01.796Z,14.73
2017-07-15T08:00:28.737Z,14.30
2017-07-15T08:02:55.672Z,11.87
2017-07-15T08:05:22.633Z,11.10
2017-07-15T08:07:49.558Z,15.77
2017-07-15T08:10:16.511Z,15.73
2017-07-15T08:12:43.466Z,16.57
2017-07-15T08:15:10.432Z,13.63
2017-07-15T08:17:37.370Z,18.33
2017-07-15T08:20:04.320Z,16.43
2017-07-15T08:22:34.193Z,19.60
2017-07-15T08:25:02.130Z,13.73
2017-07-15T08:27:29.092Z,14.40
2017-07-15T08:29:56.016Z,14.87
2017-07-15T08:32:24.009Z,15.37
2017-07-15T08:34:50.944Z,19.00
2017-07-15T08:37:17.877Z,12.63
2017-07-15T08:39:44.858Z,14.97
2017-07-15T08:42:11.817Z,13.73
2017-07-15T08:44:38.758Z,14.60
2017-07-15T08:47:06.485Z,17.47
2017-07-15T08:49:33.427Z,17.60
2017-07-15T08:52:01.298Z,15.30
2017-07-15T08:54:28.237Z,16.07
2017-07-15T08:56:56.146Z,19.00
2017-07-15T08:59:23.093Z,11.93
2017-07-15T09:01:51.865Z,15.13
2017-07-15T09:04:21.526Z,13.20
2017-07-15T09:06:48.485Z,13.70
2017-07-15T09:09:15.424Z,15.03
2017-07-15T09:11:42.397Z,16.47
2017-07-15T09:14:11.348Z,13.70
2017-07-15T09:16:38.292Z,12.17
2017-07-15T09:19:05.256Z,16.67
2017-07-15T09:21:32.193Z,17.83
2017-07-15T09:23:59.160Z,13.23
2017-07-15T09:26:26.105Z,15.50
2017-07-15T09:28:53.062Z,15.17
2017-07-15T09:31:20.990Z,16.00
2017-07-15T09:33:47.949Z,16.20
2017-07-15T09:36:16.661Z,15.80
2017-07-15T09:38:43.629Z,14.23
2017-07-15T09:41:10.572Z,15.53
2017-07-15T09:43:37.620Z,13.27
2017-07-15T09:46:04.581Z,15.37
2017-07-15T09:48:31.518Z,14.13
2017-07-15T09:50:58.490Z,16.30
2017-07-15T09:53:28.709Z,14.23
2017-07-15T09:55:55.686Z,13.03
2017-07-15T09:58:22.626Z,14.70
2017-07-15T10:00:49.554Z,12.37
2017-07-15T10:03:17.522Z,13.33
2017-07-15T10:05:44.489Z,14.37
2017-07-15T10:08:12.473Z,11.93
2017-07-15T10:10:39.409Z,13.30
2017-07-15T10:13:07.160Z,13.00
2017-07-15T10:15:34.084Z,16.00
2017-07-15T10:18:01.030Z,15.40
2017-07-15T10:20:28.050Z,15.70
2017-07-15T10:22:54.993Z,14.73
2017-07-15T10:25:21.938Z,15.20
2017-07-15T10:27:48.946Z,16.13
2017-07-15T10:30:15.972Z,14.17
2017-07-15T10:32:42.916Z,21.50
2017-07-15T10:35:09.885Z,9.80
2017-07-15T10:37:36.830Z,12.50
2017-07-15T10:40:03.797Z,10.83
2017-07-15T10:42:30.752Z,10.57
2017-07-15T10:44:58.498Z,12.87
2017-07-15T10:47:25.467Z,9.57
2017-07-15T10:49:52.413Z,11.83
2017-07-15T10:52:19.369Z,10.70
2017-07-15T10:54:46.309Z,9.63
2017-07-15T10:57:14.271Z,10.20
2017-07-15T10:59:41.203Z,9.93
2017-07-15T11:02:08.140Z,7.47
2017-07-15T11:04:35.124Z,10.07
2017-07-15T11:07:03.032Z,6.17
2017-07-15T11:09:29.976Z,6.33
2017-07-15T11:11:56.909Z,8.57
2017-07-15T11:14:25.006Z,7.50
2017-07-15T11:16:51.949Z,12.03
2017-07-15T11:19:18.901Z,7.27
2017-07-15T11:21:45.870Z,6.63
2017-07-15T11:24:16.176Z,5.80
2017-07-15T11:26:44.043Z,5.77
2017-07-15T11:29:10.966Z,6.63
2017-07-15T11:31:37.910Z,6.50
2017-07-15T11:34:04.860Z,11.50
2017-07-15T11:36:33.717Z,6.97
2017-07-15T11:39:00.667Z,11.80
2017-07-15T11:41:29.530Z,5.77
2017-07-15T11:44:00.828Z,9.30
2017-07-15T11:46:27.770Z,7.20
2017-07-15T11:48:56.651Z,5.00
2017-07-15T11:51:25.541Z,9.83
2017-07-15T11:53:52.497Z,5.40
2017-07-15T11:56:19.460Z,8.67
2017-07-15T11:58:46.389Z,4.30
2017-07-15T12:01:13.378Z,6.07
2017-07-15T12:03:40.341Z,5.10
2017-07-15T12:06:08.031Z,7.50
2017-07-15T12:08:35.960Z,6.57
2017-07-15T12:11:04.846Z,6.00
2017-07-15T12:13:33.827Z,8.70
2017-07-15T12:16:01.742Z,6.13
2017-07-15T12:18:28.678Z,5.93
2017-07-15T12:20:57.605Z,5.50
2017-07-15T12:23:24.560Z,6.27
2017-07-15T12:25:52.514Z,5.73
2017-07-15T12:28:20.371Z,6.00
2017-07-15T12:30:48.367Z,6.53
2017-07-15T12:33:15.306Z,6.50
2017-07-15T12:35:43.273Z,6.73
2017-07-15T12:38:10.219Z,5.07
2017-07-15T12:40:38.201Z,6.67
2017-07-15T12:43:05.136Z,8.63
2017-07-15T12:45:32.089Z,7.93
2017-07-15T12:48:00.092Z,8.43
2017-07-15T12:50:29.970Z,6.27
2017-07-15T12:52:57.941Z,6.50
2017-07-15T12:55:25.649Z,7.03
2017-07-15T12:57:52.617Z,7.40
2017-07-15T13:00:19.562Z,6.00
2017-07-15T13:02:46.515Z,14.33
2017-07-15T13:05:13.451Z,6.70
2017-07-15T13:07:41.460Z,5.20
2017-07-15T13:10:08.424Z,8.40
2017-07-15T13:12:35.361Z,6.13
2017-07-15T13:15:02.336Z,5.80
2017-07-15T13:17:30.288Z,5.60
2017-07-15T13:19:58.195Z,4.20
2017-07-15T13:22:25.130Z,5.10
2017-07-15T13:24:52.081Z,4.70
2017-07-15T13:27:19.021Z,4.60
2017-07-15T13:29:46.988Z,6.13
2017-07-15T13:32:14.857Z,5.50
2017-07-15T13:34:41.843Z,4.83
2017-07-15T13:37:09.569Z,7.13
2017-07-15T13:39:36.517Z,7.03
2017-07-15T13:42:03.447Z,7.57
2017-07-15T13:44:30.427Z,6.30
2017-07-15T13:46:57.365Z,5.57
2017-07-15T13:49:24.455Z,5.70
2017-07-15T13:51:51.441Z,4.83
2017-07-15T13:54:18.394Z,4.63
2017-07-15T13:56:46.376Z,5.03
2017-07-15T13:59:13.315Z,4.53
2017-07-15T14:01:40.272Z,6.73
2017-07-15T14:04:07.223Z,10.10
2017-07-15T14:06:34.928Z,6.73
2017-07-15T14:09:02.909Z,3.87
2017-07-15T14:11:30.851Z,3.43
2017-07-15T14:13:58.745Z,3.90
2017-07-15T14:16:25.704Z,1.57
2017-07-15T14:18:54.681Z,3.40
2017-07-15T14:21:21.669Z,1.37
2017-07-15T14:23:48.641Z,1.47
2017-07-15T14:26:15.573Z,5.50
2017-07-15T14:28:43.319Z,1.50
2017-07-15T14:31:10.286Z,1.27
2017-07-15T14:33:37.249Z,1.80
2017-07-15T14:36:04.204Z,2.97
2017-07-15T14:38:33.107Z,1.90
2017-07-15T14:41:00.940Z,1.23
2017-07-15T14:43:27.895Z,1.83
2017-07-15T14:45:54.868Z,1.60
2017-07-15T14:48:22.829Z,1.63
2017-07-15T14:50:51.706Z,2.50
2017-07-15T14:53:20.585Z,3.43
2017-07-15T14:55:47.555Z,7.63
2017-07-15T14:58:14.522Z,5.07
2017-07-15T15:00:43.228Z,3.13
2017-07-15T15:03:10.189Z,2.20
2017-07-15T15:05:37.145Z,1.67
2017-07-15T15:08:04.902Z,3.90
2017-07-15T15:10:31.835Z,3.13
2017-07-15T15:12:58.765Z,6.23
2017-07-15T15:15:25.709Z,3.47
2017-07-15T15:17:57.372Z,2.30
2017-07-15T15:20:26.277Z,5.90
2017-07-15T15:22:53.213Z,3.40
2017-07-15T15:25:20.186Z,3.83
2017-07-15T15:27:49.130Z,3.23
2017-07-15T15:30:16.079Z,1.83
2017-07-15T15:32:43.017Z,2.90
2017-07-15T15:35:09.960Z,6.90
2017-07-15T15:37:36.923Z,2.37
2017-07-15T15:40:03.856Z,2.30
2017-07-15T15:42:30.811Z,2.20
2017-07-15T15:44:57.747Z,2.20
2017-07-15T15:47:24.700Z,3.73
2017-07-15T15:49:52.568Z,4.20
2017-07-15T15:52:20.539Z,4.07
2017-07-15T15:54:47.470Z,3.03
2017-07-15T15:57:14.447Z,2.40
2017-07-15T15:59:43.290Z,4.60
2017-07-15T16:02:11.204Z,2.73
2017-07-15T16:04:38.130Z,2.80
2017-07-15T16:07:05.093Z,5.07
2017-07-15T16:09:32.035Z,2.33
2017-07-15T16:11:58.998Z,2.77
2017-07-15T16:14:26.416Z,4.60
2017-07-15T16:16:53.376Z,8.33
2017-07-15T16:19:20.303Z,4.20
2017-07-15T16:21:48.183Z,4.13
2017-07-15T16:24:15.866Z,2.63
2017-07-15T16:26:43.763Z,3.13
2017-07-15T16:29:10.722Z,3.47
2017-07-15T16:31:37.671Z,6.50
2017-07-15T16:34:04.624Z,6.50
2017-07-15T16:36:31.575Z,2.43
2017-07-15T16:38:58.541Z,1.63
2017-07-15T16:41:26.448Z,2.27
2017-07-15T16:43:53.399Z,3.23
2017-07-15T16:46:20.337Z,3.83
2017-07-15T16:48:47.290Z,2.97
2017-07-15T16:51:17.312Z,8.53
2017-07-15T16:53:44.301Z,4.70
2017-07-15T16:56:12.010Z,2.10
2017-07-15T16:58:42.907Z,9.40
2017-07-15T17:01:09.849Z,3.77
2017-07-15T17:03:36.800Z,4.03
2017-07-15T17:06:03.751Z,4.60
2017-07-15T17:08:33.810Z,3.57
2017-07-15T17:11:01.729Z,4.70
2017-07-15T17:13:28.795Z,2.50
2017-07-15T17:15:55.818Z,6.47
2017-07-15T17:18:22.874Z,3.90
2017-07-15T17:20:49.812Z,2.40
2017-07-15T17:23:17.720Z,3.40
2017-07-15T17:25:44.850Z,3.50
2017-07-15T17:28:11.849Z,2.47
2017-07-15T17:30:39.555Z,6.17
2017-07-15T17:33:06.512Z,2.83
2017-07-15T17:35:33.486Z,7.70
2017-07-15T17:38:01.289Z,2.83
2017-07-15T17:40:28.233Z,2.30
2017-07-15T17:42:55.957Z,3.90
2017-07-15T17:45:22.893Z,2.67
2017-07-15T17:47:49.846Z,8.10
2017-07-15T17:50:16.793Z,3.50
2017-07-15T17:52:43.749Z,8.80
2017-07-15T17:55:11.602Z,3.03
2017-07-15T17:57:38.559Z,4.90
2017-07-15T18:00:06.517Z,2.20
2017-07-15T18:02:33.462Z,3.60
2017-07-15T18:05:00.424Z,3.77
2017-07-15T18:07:28.151Z,4.40
2017-07-15T18:09:55.118Z,3.67
2017-07-15T18:12:22.052Z,6.23
2017-07-15T18:14:49.009Z,5.07
2017-07-15T18:17:15.931Z,5.43
2017-07-15T18:19:43.798Z,3.83
2017-07-15T18:22:10.732Z,3.60
2017-07-15T18:24:38.662Z,4.23
2017-07-15T18:27:06.602Z,6.67
2017-07-15T18:29:33.563Z,2.90
2017-07-15T18:32:00.487Z,9.07
2017-07-15T18:34:27.466Z,5.33
2017-07-15T18:36:55.405Z,5.00
2017-07-15T18:39:22.346Z,5.67
2017-07-15T18:41:49.342Z,5.30
2017-07-15T18:44:16.273Z,4.00
2017-07-15T18:46:43.232Z,4.47
2017-07-15T18:49:13.507Z,3.93
2017-07-15T18:51:41.403Z,5.23
2017-07-15T18:54:08.345Z,3.23
2017-07-15T18:56:35.274Z,4.13
2017-07-15T18:59:02.224Z,7.20
2017-07-15T19:01:29.156Z,6.30
2017-07-15T19:03:56.090Z,9.80
2017-07-15T19:06:23.029Z,6.30
2017-07-15T19:08:49.990Z,5.17
2017-07-15T19:11:16.931Z,5.40
2017-07-15T19:13:43.925Z,8.93
2017-07-15T19:16:11.822Z,3.63
2017-07-15T19:18:38.819Z,3.30
2017-07-15T19:21:05.775Z,4.87
2017-07-15T19:23:33.648Z,5.03
2017-07-15T19:26:00.606Z,11.67
2017-07-15T19:28:28.499Z,8.10
2017-07-15T19:30:55.456Z,4.43
2017-07-15T19:33:22.392Z,4.33
2017-07-15T19:35:49.342Z,6.17
2017-07-15T19:41:15.019Z,5.70
2017-07-15T19:43:42.869Z,6.67
2017-07-15T19:46:10.597Z,4.27
2017-07-15T19:48:37.528Z,8.57
2017-07-15T19:51:04.489Z,9.57
2017-07-15T19:53:31.433Z,11.10
2017-07-15T19:55:58.446Z,11.53
2017-07-15T19:58:25.381Z,6.40
2017-07-15T20:00:52.339Z,8.17
2017-07-15T20:03:19.296Z,6.57
2017-07-15T20:05:46.236Z,5.53
2017-07-15T20:08:13.203Z,9.93
2017-07-15T20:10:41.129Z,8.45
2017-07-15T20:13:08.100Z,11.67
2017-07-15T20:15:38.382Z,6.47
2017-07-15T20:18:05.325Z,6.70
2017-07-15T20:20:34.255Z,9.63
2017-07-15T20:23:06.475Z,10.50
2017-07-15T20:25:33.562Z,7.27
2017-07-15T20:28:00.529Z,8.57
2017-07-15T20:30:28.409Z,5.87
2017-07-15T20:32:57.345Z,12.13
2017-07-15T20:35:24.286Z,9.40
2017-07-15T20:37:51.235Z,10.70
2017-07-15T20:40:18.201Z,9.43
2017-07-15T20:42:46.082Z,4.53
2017-07-15T20:45:13.813Z,8.80
2017-07-15T20:47:40.753Z,12.23
2017-07-15T20:50:07.720Z,15.60
2017-07-15T20:52:35.420Z,8.00
2017-07-15T20:55:02.372Z,5.60
2017-07-15T20:57:30.239Z,9.03
2017-07-15T20:59:57.225Z,17.27
2017-07-15T21:02:24.148Z,9.33
2017-07-15T21:04:51.120Z,12.30
2017-07-15T21:07:18.082Z,10.27
2017-07-15T21:09:46.803Z,11.50
2017-07-15T21:12:13.739Z,7.97
2017-07-15T21:14:40.705Z,6.33
2017-07-15T21:17:08.429Z,9.07
2017-07-15T21:19:35.390Z,9.77
2017-07-15T21:22:02.353Z,9.47
2017-07-15T21:24:30.300Z,6.37
2017-07-15T21:26:58.273Z,8.83
2017-07-15T21:29:28.761Z,8.30
2017-07-15T21:31:59.184Z,7.57
2017-07-15T21:34:27.183Z,5.80
2017-07-15T21:36:54.129Z,14.83
2017-07-15T21:39:22.081Z,12.10
2017-07-15T21:41:50.054Z,7.60
2017-07-15T21:44:20.467Z,13.30
2017-07-15T21:46:47.470Z,10.90
2017-07-15T21:49:14.471Z,6.80
2017-07-15T21:51:41.459Z,6.77
2017-07-15T21:54:11.193Z,9.40
2017-07-15T21:56:39.143Z,11.57
2017-07-15T21:59:09.463Z,11.57
2017-07-15T22:01:37.241Z,9.80
2017-07-15T22:04:04.273Z,14.20
2017-07-15T22:06:32.078Z,11.40
2017-07-15T22:08:59.070Z,10.00
2017-07-15T22:11:26.116Z,12.13
2017-07-15T22:13:53.113Z,8.77
2017-07-15T22:16:20.127Z,8.23
2017-07-15T22:18:47.887Z,9.73
2017-07-15T22:21:16.718Z,8.43
2017-07-15T22:23:43.715Z,9.53
2017-07-15T22:26:10.707Z,9.20
2017-07-15T22:28:37.741Z,11.70
2017-07-15T22:31:04.729Z,9.93
2017-07-15T22:33:31.747Z,9.73
2017-07-15T22:35:58.746Z,11.30
2017-07-15T22:38:26.532Z,10.10
2017-07-15T22:40:53.521Z,12.50
2017-07-15T22:43:21.545Z,11.40
2017-07-15T22:45:48.541Z,15.73
2017-07-15T22:48:15.564Z,11.27
2017-07-15T22:50:42.556Z,9.10
2017-07-15T22:53:10.505Z,9.10
2017-07-15T22:55:37.510Z,18.97
2017-07-15T22:58:04.505Z,12.67
2017-07-15T23:00:31.530Z,8.07
2017-07-15T23:02:59.297Z,11.20
2017-07-15T23:05:27.106Z,12.63
2017-07-15T23:07:54.101Z,9.20
2017-07-15T23:10:21.885Z,11.27
2017-07-15T23:12:48.883Z,12.03
2017-07-15T23:15:15.909Z,9.20
2017-07-15T23:17:42.887Z,13.10
2017-07-15T23:20:10.204Z,11.60
2017-07-15T23:22:37.193Z,9.00
2017-07-15T23:25:04.207Z,11.80
2017-07-15T23:27:32.297Z,11.40
2017-07-15T23:29:59.297Z,10.93
2017-07-15T23:32:27.258Z,13.43
2017-07-15T23:34:55.025Z,13.20
2017-07-15T23:37:22.790Z,12.20
2017-07-15T23:39:50.577Z,12.47
2017-07-15T23:42:17.593Z,11.70
2017-07-15T23:44:45.366Z,13.20
2017-07-15T23:47:13.407Z,10.10
2017-07-15T23:49:40.392Z,11.70
2017-07-15T23:52:10.105Z,13.40
2017-07-15T23:54:37.097Z,9.43
2017-07-15T23:57:04.121Z,11.67
2017-07-15T23:59:31.113Z,9.43
